Time;durP1;ratioP1;P1;durP2;ratioP2;P2;SDS_P1;SDS_P2;PMS_P1;PMS_P2;Temp;Humidity;BMP_temperature;BMP_pressure;BME280_temperature;BME280_humidity;BME280_pressure;Samples;Min_cycle;Max_cycle;Signal;HPM_P1;HPM_P2
2023/12/16 00:02:05;;;;;;;22.57;13.87;;;;;;;;;;769967;178;984219;-60
2023/12/16 00:04:31;;;;;;;16.70;11.50;;;;;;;;;;780823;180;815130;-69
2023/12/16 00:06:56;;;;;;;23.03;12.67;;;;;;;;;;773119;180;821181;-68
2023/12/16 00:09:22;;;;;;;22.40;14.17;;;;;;;;;;771496;178;1017848;-68
2023/12/16 00:11:48;;;;;;;20.27;13.23;;;;;;;;;;775359;180;920430;-69
2023/12/16 00:14:14;;;;;;;22.73;13.07;;;;;;;;;;772037;178;935653;-60
2023/12/16 00:16:44;;;;;;;24.58;15.00;;;;;;;;;;771693;180;817083;-60
2023/12/16 00:19:10;;;;;;;19.12;13.85;;;;;;;;;;777129;179;920007;-60
2023/12/16 00:21:37;;;;;;;22.20;12.77;;;;;;;;;;772335;180;920722;-67
2023/12/16 00:24:02;;;;;;;22.33;15.73;;;;;;;;;;775830;180;918276;-68
2023/12/16 00:26:28;;;;;;;23.97;15.07;;;;;;;;;;771623;177;918136;-68
2023/12/16 00:28:54;;;;;;;22.80;12.93;;;;;;;;;;779692;177;915026;-69
2023/12/16 00:31:19;;;;;;;21.70;14.40;;;;;;;;;;762025;182;920919;-60
2023/12/16 00:33:45;;;;;;;23.00;14.57;;;;;;;;;;774187;180;915850;-70
2023/12/16 00:36:11;;;;;;;22.13;14.13;;;;;;;;;;778133;180;915132;-60
2023/12/16 00:38:37;;;;;;;24.80;14.37;;;;;;;;;;775641;177;916015;-59
2023/12/16 00:41:03;;;;;;;24.60;15.90;;;;;;;;;;774555;180;915318;-69
2023/12/16 00:43:29;;;;;;;24.90;14.93;;;;;;;;;;776836;179;915204;-59
2023/12/16 00:45:55;;;;;;;23.40;13.93;;;;;;;;;;771809;180;917845;-60
2023/12/16 00:48:20;;;;;;;19.80;14.63;;;;;;;;;;770806;179;916397;-59
2023/12/16 00:50:46;;;;;;;24.67;14.70;;;;;;;;;;773875;180;852709;-69
2023/12/16 00:53:12;;;;;;;19.83;13.40;;;;;;;;;;779668;178;915788;-61
2023/12/16 00:55:40;;;;;;;26.80;13.63;;;;;;;;;;775808;177;812619;-60
2023/12/16 00:58:04;;;;;;;31.13;15.90;;;;;;;;;;771666;177;919282;-60
2023/12/16 01:00:30;;;;;;;23.42;14.38;;;;;;;;;;777266;180;919004;-60
2023/12/16 01:02:58;;;;;;;26.50;16.43;;;;;;;;;;769282;180;919374;-68
2023/12/16 01:05:21;;;;;;;23.58;13.98;;;;;;;;;;769390;180;921915;-62
2023/12/16 01:07:47;;;;;;;24.60;14.50;;;;;;;;;;780561;180;814243;-60
2023/12/16 01:10:13;;;;;;;22.50;13.67;;;;;;;;;;775000;180;916278;-69
2023/12/16 01:12:39;;;;;;;27.10;15.40;;;;;;;;;;774847;181;918151;-68
2023/12/16 01:15:06;;;;;;;22.13;13.75;;;;;;;;;;773942;178;914439;-60
2023/12/16 01:17:32;;;;;;;26.13;15.23;;;;;;;;;;762198;180;815804;-65
2023/12/16 01:19:58;;;;;;;23.67;15.17;;;;;;;;;;763414;181;919266;-60
2023/12/16 01:22:23;;;;;;;24.67;15.23;;;;;;;;;;773081;179;861340;-68
2023/12/16 01:24:49;;;;;;;26.63;13.80;;;;;;;;;;777283;179;918126;-69
2023/12/16 01:27:15;;;;;;;23.40;15.00;;;;;;;;;;771849;180;919330;-60
2023/12/16 01:29:41;;;;;;;18.73;13.07;;;;;;;;;;772240;180;918301;-68
2023/12/16 01:32:07;;;;;;;22.40;12.77;;;;;;;;;;776280;181;918659;-60
2023/12/16 01:34:33;;;;;;;27.93;14.33;;;;;;;;;;769405;179;917825;-60
2023/12/16 01:36:59;;;;;;;22.33;13.70;;;;;;;;;;770879;181;873781;-69
2023/12/16 01:39:24;;;;;;;19.07;13.60;;;;;;;;;;773220;180;919692;-60
2023/12/16 01:41:50;;;;;;;25.03;14.70;;;;;;;;;;771747;178;918861;-69
2023/12/16 01:44:16;;;;;;;24.67;14.80;;;;;;;;;;769707;179;818215;-60
2023/12/16 01:46:42;;;;;;;26.33;14.60;;;;;;;;;;763899;181;918160;-68
2023/12/16 01:49:08;;;;;;;24.53;14.60;;;;;;;;;;772640;181;917017;-69
2023/12/16 01:51:34;;;;;;;21.93;13.17;;;;;;;;;;771944;178;918138;-60
2023/12/16 01:53:59;;;;;;;23.73;13.60;;;;;;;;;;776241;178;816518;-59
2023/12/16 01:56:28;;;;;;;22.57;13.40;;;;;;;;;;778086;180;1021196;-67
2023/12/16 01:58:51;;;;;;;21.07;13.37;;;;;;;;;;769938;177;918579;-68
2023/12/16 02:01:17;;;;;;;22.27;13.10;;;;;;;;;;771049;180;919937;-68
2023/12/16 02:03:43;;;;;;;23.48;13.68;;;;;;;;;;776934;180;819822;-59
2023/12/16 02:06:09;;;;;;;23.70;13.10;;;;;;;;;;775191;180;917534;-59
2023/12/16 02:08:34;;;;;;;22.20;13.70;;;;;;;;;;770136;180;884932;-68
2023/12/16 02:11:01;;;;;;;22.98;11.65;;;;;;;;;;765999;180;915284;-68
2023/12/16 02:13:27;;;;;;;25.83;15.83;;;;;;;;;;761327;181;795801;-68
2023/12/16 02:15:52;;;;;;;21.40;13.90;;;;;;;;;;771454;178;822618;-65
2023/12/16 02:18:18;;;;;;;25.10;13.90;;;;;;;;;;769739;179;922909;-59
2023/12/16 02:20:46;;;;;;;26.73;14.27;;;;;;;;;;780456;180;842848;-59
2023/12/16 02:23:11;;;;;;;27.40;14.63;;;;;;;;;;773231;180;916654;-60
2023/12/16 02:25:37;;;;;;;22.80;14.30;;;;;;;;;;774757;181;820025;-59
2023/12/16 02:28:03;;;;;;;21.00;12.97;;;;;;;;;;777471;179;920982;-60
2023/12/16 02:30:29;;;;;;;22.60;15.70;;;;;;;;;;766543;180;919549;-68
2023/12/16 02:32:56;;;;;;;26.05;15.35;;;;;;;;;;771724;180;919305;-68
2023/12/16 02:35:20;;;;;;;28.23;15.87;;;;;;;;;;777651;178;917750;-68
2023/12/16 02:37:46;;;;;;;28.40;14.95;;;;;;;;;;769752;179;915879;-60
2023/12/16 02:40:13;;;;;;;26.90;13.90;;;;;;;;;;774550;181;815685;-68
2023/12/16 02:42:38;;;;;;;20.67;13.80;;;;;;;;;;775218;178;920794;-60
2023/12/16 02:45:04;;;;;;;23.20;15.80;;;;;;;;;;782090;180;715691;-68
2023/12/16 02:47:30;;;;;;;24.20;15.37;;;;;;;;;;775729;180;919393;-60
2023/12/16 02:49:56;;;;;;;21.80;13.00;;;;;;;;;;777484;178;913533;-68
2023/12/16 02:52:22;;;;;;;37.57;15.40;;;;;;;;;;774831;180;919457;-60
2023/12/16 02:54:47;;;;;;;25.73;14.00;;;;;;;;;;769040;180;919716;-69
2023/12/16 02:57:13;;;;;;;24.75;15.43;;;;;;;;;;770018;180;1565850;-60
2023/12/16 02:59:39;;;;;;;23.40;13.53;;;;;;;;;;775620;177;815727;-68
2023/12/16 03:02:05;;;;;;;22.43;15.60;;;;;;;;;;767140;177;919408;-60
2023/12/16 03:04:31;;;;;;;22.03;12.87;;;;;;;;;;774794;180;1024367;-68
2023/12/16 03:06:57;;;;;;;24.83;15.60;;;;;;;;;;775288;180;817021;-66
2023/12/16 03:09:22;;;;;;;26.17;14.60;;;;;;;;;;773038;179;890061;-68
2023/12/16 03:11:49;;;;;;;20.70;12.60;;;;;;;;;;774429;178;922863;-60
2023/12/16 03:14:14;;;;;;;23.90;13.57;;;;;;;;;;776873;179;918969;-68
2023/12/16 03:16:40;;;;;;;26.80;16.10;;;;;;;;;;780211;180;818234;-60
2023/12/16 03:19:06;;;;;;;27.67;15.10;;;;;;;;;;774330;178;816326;-61
2023/12/16 03:21:32;;;;;;;21.80;13.90;;;;;;;;;;769511;181;959026;-60
2023/12/16 03:23:58;;;;;;;25.47;13.53;;;;;;;;;;770370;180;920168;-61
2023/12/16 03:26:23;;;;;;;24.10;13.17;;;;;;;;;;774272;180;919301;-68
2023/12/16 03:28:49;;;;;;;18.87;12.33;;;;;;;;;;772140;180;919246;-69
2023/12/16 03:31:15;;;;;;;22.70;12.00;;;;;;;;;;778160;180;919470;-60
2023/12/16 03:33:41;;;;;;;28.00;14.40;;;;;;;;;;771757;180;917633;-60
2023/12/16 03:36:08;;;;;;;22.53;14.73;;;;;;;;;;771226;180;1456964;-69
2023/12/16 03:38:34;;;;;;;23.62;14.68;;;;;;;;;;772269;177;919367;-60
2023/12/16 03:41:00;;;;;;;23.57;14.20;;;;;;;;;;779407;178;913179;-69
2023/12/16 03:43:26;;;;;;;22.70;13.43;;;;;;;;;;774920;180;919175;-60
2023/12/16 03:45:52;;;;;;;24.80;13.20;;;;;;;;;;761471;184;918671;-68
2023/12/16 03:48:17;;;;;;;21.97;13.70;;;;;;;;;;776169;181;924740;-60
2023/12/16 03:50:43;;;;;;;23.97;14.07;;;;;;;;;;767979;180;847033;-68
2023/12/16 03:53:09;;;;;;;21.12;13.98;;;;;;;;;;773257;180;920254;-60
2023/12/16 03:55:35;;;;;;;22.10;15.40;;;;;;;;;;775800;181;804480;-59
2023/12/16 03:58:01;;;;;;;21.07;14.10;;;;;;;;;;777352;176;919359;-60
2023/12/16 04:00:27;;;;;;;28.10;13.33;;;;;;;;;;776549;180;916164;-69
2023/12/16 04:02:52;;;;;;;20.57;12.57;;;;;;;;;;774261;179;924610;-61
2023/12/16 04:05:18;;;;;;;21.30;12.90;;;;;;;;;;779914;177;819714;-69
2023/12/16 04:07:44;;;;;;;24.50;13.67;;;;;;;;;;776607;180;918940;-60
2023/12/16 04:10:10;;;;;;;23.73;13.70;;;;;;;;;;770568;180;919506;-60
2023/12/16 04:12:36;;;;;;;31.97;14.43;;;;;;;;;;779350;177;892481;-68
2023/12/16 04:15:02;;;;;;;23.47;14.10;;;;;;;;;;775123;177;884039;-60
2023/12/16 04:17:27;;;;;;;21.53;13.57;;;;;;;;;;768277;180;919124;-60
2023/12/16 04:19:53;;;;;;;21.67;13.53;;;;;;;;;;778705;180;916823;-69
2023/12/16 04:22:19;;;;;;;24.63;13.90;;;;;;;;;;775219;180;917899;-69
2023/12/16 04:24:45;;;;;;;20.27;13.30;;;;;;;;;;772135;180;918253;-60
2023/12/16 04:27:11;;;;;;;24.08;13.93;;;;;;;;;;777215;181;918924;-67
2023/12/16 04:29:37;;;;;;;21.57;13.60;;;;;;;;;;774400;181;919136;-69
2023/12/16 04:32:03;;;;;;;20.00;13.33;;;;;;;;;;774040;177;920152;-69
2023/12/16 04:34:29;;;;;;;21.60;12.65;;;;;;;;;;772345;180;919997;-67
2023/12/16 04:36:55;;;;;;;20.67;13.47;;;;;;;;;;778900;180;901932;-60
2023/12/16 04:39:21;;;;;;;23.70;13.47;;;;;;;;;;770496;180;818426;-69
2023/12/16 04:41:47;;;;;;;26.53;14.23;;;;;;;;;;768895;178;885760;-60
2023/12/16 04:44:13;;;;;;;23.30;13.60;;;;;;;;;;777759;181;919681;-62
2023/12/16 04:46:39;;;;;;;21.55;12.57;;;;;;;;;;771318;181;920693;-71
2023/12/16 04:49:04;;;;;;;23.27;13.87;;;;;;;;;;771858;181;1008631;-67
2023/12/16 04:51:30;;;;;;;21.23;11.77;;;;;;;;;;772501;180;818317;-61
2023/12/16 04:53:56;;;;;;;21.23;13.53;;;;;;;;;;772818;178;919422;-60
2023/12/16 04:56:22;;;;;;;18.97;12.47;;;;;;;;;;773354;179;943259;-72
2023/12/16 04:58:48;;;;;;;21.83;13.60;;;;;;;;;;774481;178;895981;-69
2023/12/16 05:01:14;;;;;;;20.50;12.60;;;;;;;;;;776592;177;907281;-70
2023/12/16 05:03:39;;;;;;;25.03;13.67;;;;;;;;;;773812;177;915941;-60
2023/12/16 05:06:05;;;;;;;24.00;13.97;;;;;;;;;;773264;178;1009569;-69
2023/12/16 05:08:31;;;;;;;24.27;13.67;;;;;;;;;;775868;179;914006;-60
2023/12/16 05:10:57;;;;;;;23.47;13.30;;;;;;;;;;772844;179;923018;-61
2023/12/16 05:13:23;;;;;;;22.20;12.30;;;;;;;;;;775335;179;924223;-61
2023/12/16 05:15:51;;;;;;;21.33;12.80;;;;;;;;;;776426;180;919486;-69
2023/12/16 05:18:15;;;;;;;22.93;13.53;;;;;;;;;;769390;180;917526;-69
2023/12/16 05:20:40;;;;;;;22.70;13.53;;;;;;;;;;768998;180;918995;-69
2023/12/16 05:23:07;;;;;;;21.70;12.80;;;;;;;;;;776805;178;820362;-61
2023/12/16 05:25:33;;;;;;;24.20;13.97;;;;;;;;;;769538;180;913724;-68
2023/12/16 05:27:58;;;;;;;27.53;15.27;;;;;;;;;;772228;180;887373;-69
2023/12/16 05:30:24;;;;;;;27.77;15.13;;;;;;;;;;772251;180;834876;-69
2023/12/16 05:32:50;;;;;;;27.60;15.67;;;;;;;;;;777093;180;920390;-61
2023/12/16 05:35:18;;;;;;;26.40;13.10;;;;;;;;;;769308;179;921142;-68
2023/12/16 05:37:42;;;;;;;20.73;14.10;;;;;;;;;;772396;180;917065;-68
2023/12/16 05:40:09;;;;;;;24.60;14.97;;;;;;;;;;780657;178;805928;-68
2023/12/16 05:42:34;;;;;;;25.60;16.10;;;;;;;;;;773138;180;815371;-68
2023/12/16 05:45:00;;;;;;;29.73;16.07;;;;;;;;;;772102;180;919058;-61
2023/12/16 05:47:26;;;;;;;23.23;14.50;;;;;;;;;;772155;179;917843;-68
2023/12/16 05:49:51;;;;;;;34.77;14.63;;;;;;;;;;759150;181;919015;-69
2023/12/16 05:52:18;;;;;;;24.60;13.43;;;;;;;;;;768707;180;921410;-61
2023/12/16 05:54:44;;;;;;;23.17;14.10;;;;;;;;;;768232;180;843036;-61
2023/12/16 05:57:10;;;;;;;23.70;14.87;;;;;;;;;;766298;180;631669;-70
2023/12/16 05:59:35;;;;;;;28.33;14.10;;;;;;;;;;773349;177;915057;-69
2023/12/16 06:02:01;;;;;;;26.62;14.77;;;;;;;;;;761223;181;1297770;-68
2023/12/16 06:04:27;;;;;;;21.67;14.07;;;;;;;;;;775851;181;874037;-61
2023/12/16 06:06:53;;;;;;;38.87;25.97;;;;;;;;;;768603;180;896855;-61
2023/12/16 06:09:19;;;;;;;23.70;14.17;;;;;;;;;;752144;184;1739793;-62
2023/12/16 06:11:45;;;;;;;23.13;14.07;;;;;;;;;;776672;181;861188;-62
2023/12/16 06:14:11;;;;;;;27.80;15.80;;;;;;;;;;774059;178;827128;-61
2023/12/16 06:16:37;;;;;;;23.20;14.20;;;;;;;;;;769188;180;922096;-69
2023/12/16 06:19:03;;;;;;;22.70;13.17;;;;;;;;;;770883;180;924594;-68
2023/12/16 06:21:29;;;;;;;21.30;13.50;;;;;;;;;;752521;182;905396;-62
2023/12/16 06:23:55;;;;;;;26.63;14.27;;;;;;;;;;742958;185;818960;-69
2023/12/16 06:26:21;;;;;;;19.77;12.30;;;;;;;;;;752114;184;917029;-69
2023/12/16 06:28:47;;;;;;;27.77;14.97;;;;;;;;;;759729;184;810380;-62
2023/12/16 06:31:13;;;;;;;27.17;15.40;;;;;;;;;;768499;180;814706;-62
2023/12/16 06:33:39;;;;;;;26.77;16.33;;;;;;;;;;768388;180;917175;-62
2023/12/16 06:36:05;;;;;;;23.43;13.90;;;;;;;;;;778923;177;917791;-62
2023/12/16 06:38:31;;;;;;;27.67;15.23;;;;;;;;;;767242;180;943441;-70
2023/12/16 06:40:57;;;;;;;25.83;15.20;;;;;;;;;;772868;180;916344;-69
2023/12/16 06:43:23;;;;;;;27.70;15.17;;;;;;;;;;775199;177;909683;-62
2023/12/16 06:45:49;;;;;;;28.13;17.60;;;;;;;;;;768230;180;937048;-69
2023/12/16 06:48:14;;;;;;;33.60;19.37;;;;;;;;;;771296;180;919147;-62
2023/12/16 06:50:40;;;;;;;42.80;26.17;;;;;;;;;;771072;180;881051;-70
2023/12/16 06:53:06;;;;;;;28.07;15.83;;;;;;;;;;779094;178;813943;-69
2023/12/16 06:55:32;;;;;;;26.17;16.05;;;;;;;;;;770964;178;920944;-69
2023/12/16 06:57:58;;;;;;;23.90;13.60;;;;;;;;;;772894;178;876033;-69
2023/12/16 07:00:24;;;;;;;26.17;15.30;;;;;;;;;;778708;180;813877;-62
2023/12/16 07:02:49;;;;;;;20.20;13.63;;;;;;;;;;768180;179;811995;-70
2023/12/16 07:05:15;;;;;;;26.43;14.73;;;;;;;;;;770894;180;780938;-69
2023/12/16 07:07:41;;;;;;;23.63;14.37;;;;;;;;;;778300;178;817516;-63
2023/12/16 07:10:08;;;;;;;26.10;14.60;;;;;;;;;;768172;180;920283;-63
2023/12/16 07:12:33;;;;;;;26.47;17.17;;;;;;;;;;761220;178;922202;-69
2023/12/16 07:14:59;;;;;;;25.53;15.33;;;;;;;;;;764307;179;922294;-68
2023/12/16 07:17:25;;;;;;;29.00;16.97;;;;;;;;;;780515;178;718377;-71
2023/12/16 07:19:51;;;;;;;29.93;16.90;;;;;;;;;;771621;180;919342;-63
2023/12/16 07:22:16;;;;;;;26.07;16.23;;;;;;;;;;773135;181;890313;-63
2023/12/16 07:24:42;;;;;;;28.87;17.40;;;;;;;;;;775690;180;887130;-65
2023/12/16 07:27:08;;;;;;;28.77;17.47;;;;;;;;;;773240;178;884433;-63
2023/12/16 07:29:34;;;;;;;35.90;20.37;;;;;;;;;;771579;179;819496;-69
2023/12/16 07:32:00;;;;;;;38.13;22.20;;;;;;;;;;777250;179;919148;-69
2023/12/16 07:34:26;;;;;;;35.43;19.23;;;;;;;;;;771478;180;920035;-64
2023/12/16 07:36:52;;;;;;;38.23;22.67;;;;;;;;;;773157;180;917275;-63
2023/12/16 07:39:18;;;;;;;31.50;20.02;;;;;;;;;;763315;181;918194;-68
2023/12/16 07:41:43;;;;;;;32.83;17.30;;;;;;;;;;772680;178;916496;-69
2023/12/16 07:44:11;;;;;;;25.33;15.30;;;;;;;;;;773155;180;818252;-64
2023/12/16 07:46:35;;;;;;;25.80;16.00;;;;;;;;;;774861;177;919225;-68
2023/12/16 07:49:01;;;;;;;33.57;18.47;;;;;;;;;;776514;180;918727;-68
2023/12/16 07:51:27;;;;;;;25.37;16.50;;;;;;;;;;776355;177;896605;-64
2023/12/16 07:53:53;;;;;;;33.40;18.10;;;;;;;;;;770569;178;919546;-63
2023/12/16 07:56:19;;;;;;;33.90;18.98;;;;;;;;;;777957;180;815256;-64
2023/12/16 07:58:45;;;;;;;31.50;18.30;;;;;;;;;;773497;180;918849;-68
2023/12/16 08:01:13;;;;;;;26.40;17.03;;;;;;;;;;772686;181;917716;-70
2023/12/16 08:03:39;;;;;;;24.60;16.45;;;;;;;;;;772829;179;942477;-67
2023/12/16 08:06:05;;;;;;;23.20;14.17;;;;;;;;;;775388;177;872457;-63
2023/12/16 08:08:31;;;;;;;21.00;13.83;;;;;;;;;;769619;180;917019;-68
2023/12/16 08:10:57;;;;;;;30.27;16.45;;;;;;;;;;775224;180;817049;-64
2023/12/16 08:13:23;;;;;;;27.40;16.57;;;;;;;;;;777917;180;918261;-63
2023/12/16 08:15:48;;;;;;;29.15;16.80;;;;;;;;;;773457;178;902984;-64
2023/12/16 08:18:15;;;;;;;26.47;16.37;;;;;;;;;;773542;180;918827;-63
2023/12/16 08:20:40;;;;;;;25.73;15.47;;;;;;;;;;776625;180;913714;-69
2023/12/16 08:23:07;;;;;;;25.47;15.23;;;;;;;;;;772215;178;1260947;-67
2023/12/16 08:25:35;;;;;;;32.67;16.63;;;;;;;;;;776698;177;622119;-63
2023/12/16 08:27:58;;;;;;;30.50;16.23;;;;;;;;;;774506;180;915889;-62
2023/12/16 08:30:23;;;;;;;29.83;15.43;;;;;;;;;;771873;180;916415;-62
2023/12/16 08:32:49;;;;;;;23.63;14.13;;;;;;;;;;774327;180;712852;-70
2023/12/16 08:35:15;;;;;;;27.60;14.93;;;;;;;;;;771679;180;918790;-63
2023/12/16 08:37:41;;;;;;;23.83;14.37;;;;;;;;;;776314;180;1023110;-63
2023/12/16 08:40:09;;;;;;;28.13;16.03;;;;;;;;;;775287;180;919130;-70
2023/12/16 08:42:33;;;;;;;25.83;15.30;;;;;;;;;;775123;178;918547;-62
2023/12/16 08:44:59;;;;;;;25.63;13.53;;;;;;;;;;778335;180;918963;-62
2023/12/16 08:47:25;;;;;;;24.43;15.10;;;;;;;;;;774002;180;920849;-69
2023/12/16 08:49:51;;;;;;;25.50;15.17;;;;;;;;;;773865;177;1021436;-70
2023/12/16 08:52:16;;;;;;;28.13;16.00;;;;;;;;;;779191;179;919469;-63
2023/12/16 08:54:42;;;;;;;29.57;15.00;;;;;;;;;;774372;179;918888;-71
2023/12/16 08:57:08;;;;;;;27.83;17.92;;;;;;;;;;775079;180;919707;-70
2023/12/16 08:59:34;;;;;;;33.90;17.60;;;;;;;;;;775372;180;872121;-69
2023/12/16 09:02:00;;;;;;;25.73;14.13;;;;;;;;;;774114;178;933262;-70
2023/12/16 09:04:26;;;;;;;26.17;14.70;;;;;;;;;;772848;181;919063;-70
2023/12/16 09:06:53;;;;;;;27.20;16.20;;;;;;;;;;775903;177;908186;-69
2023/12/16 09:09:19;;;;;;;26.47;16.83;;;;;;;;;;777171;176;810336;-70
2023/12/16 09:11:45;;;;;;;23.13;16.23;;;;;;;;;;764145;181;913868;-63
2023/12/16 09:14:11;;;;;;;23.63;15.20;;;;;;;;;;766946;179;915710;-69
2023/12/16 09:16:37;;;;;;;29.83;15.77;;;;;;;;;;779178;180;921694;-69
2023/12/16 09:19:03;;;;;;;25.53;15.23;;;;;;;;;;772610;180;861372;-63
2023/12/16 09:21:28;;;;;;;28.70;14.03;;;;;;;;;;767500;180;811159;-63
2023/12/16 09:23:54;;;;;;;27.80;16.40;;;;;;;;;;772166;181;813686;-63
2023/12/16 09:26:21;;;;;;;27.10;16.10;;;;;;;;;;774489;181;619049;-70
2023/12/16 09:28:47;;;;;;;32.87;15.70;;;;;;;;;;770508;181;635428;-62
2023/12/16 09:31:12;;;;;;;31.77;15.43;;;;;;;;;;773928;177;920035;-63
2023/12/16 09:33:38;;;;;;;25.03;15.67;;;;;;;;;;776003;180;911334;-70
2023/12/16 09:36:05;;;;;;;25.47;16.03;;;;;;;;;;773135;180;909915;-62
2023/12/16 09:38:30;;;;;;;26.33;15.40;;;;;;;;;;766672;180;764630;-69
2023/12/16 09:40:56;;;;;;;23.58;14.68;;;;;;;;;;773401;181;917655;-69
2023/12/16 09:43:22;;;;;;;22.80;14.00;;;;;;;;;;777732;179;633654;-68
2023/12/16 09:45:48;;;;;;;25.77;15.03;;;;;;;;;;771540;180;917485;-69
2023/12/16 09:48:15;;;;;;;25.40;15.63;;;;;;;;;;775442;181;815023;-62
2023/12/16 09:50:40;;;;;;;25.33;16.80;;;;;;;;;;773534;181;924589;-62
2023/12/16 09:53:06;;;;;;;33.33;15.70;;;;;;;;;;772844;177;919812;-71
2023/12/16 09:55:32;;;;;;;27.15;15.48;;;;;;;;;;772755;178;1224664;-69
2023/12/16 09:57:58;;;;;;;30.80;15.70;;;;;;;;;;781108;179;912860;-70
2023/12/16 10:00:24;;;;;;;28.53;15.83;;;;;;;;;;772740;180;1017596;-69
2023/12/16 10:02:51;;;;;;;26.40;15.27;;;;;;;;;;774088;179;817555;-69
2023/12/16 10:05:16;;;;;;;24.80;15.23;;;;;;;;;;767155;181;914644;-69
2023/12/16 10:07:41;;;;;;;25.53;14.50;;;;;;;;;;766690;179;819656;-63
2023/12/16 10:10:07;;;;;;;27.77;15.17;;;;;;;;;;774703;181;878122;-62
2023/12/16 10:12:34;;;;;;;34.43;17.63;;;;;;;;;;779810;177;820029;-62
2023/12/16 10:14:59;;;;;;;24.13;16.30;;;;;;;;;;771624;178;919429;-63
2023/12/16 10:17:25;;;;;;;25.40;16.67;;;;;;;;;;770953;180;920129;-62
2023/12/16 10:19:51;;;;;;;30.13;15.43;;;;;;;;;;773561;178;915963;-62
2023/12/16 10:22:17;;;;;;;25.50;15.53;;;;;;;;;;778239;180;919984;-70
2023/12/16 10:24:42;;;;;;;26.77;13.60;;;;;;;;;;772932;180;920988;-69
2023/12/16 10:27:08;;;;;;;31.30;15.47;;;;;;;;;;768682;180;919049;-62
2023/12/16 10:29:34;;;;;;;34.33;15.60;;;;;;;;;;780563;177;907108;-62
2023/12/16 10:32:00;;;;;;;24.13;14.67;;;;;;;;;;760989;181;918155;-65
2023/12/16 10:34:28;;;;;;;25.48;15.80;;;;;;;;;;767361;181;919652;-63
2023/12/16 10:36:53;;;;;;;22.63;14.20;;;;;;;;;;774811;180;916414;-70
2023/12/16 10:39:19;;;;;;;25.43;14.80;;;;;;;;;;776661;177;816070;-63
2023/12/16 10:41:45;;;;;;;24.53;14.50;;;;;;;;;;774009;178;815836;-69
2023/12/16 10:44:11;;;;;;;21.77;14.47;;;;;;;;;;777093;178;710117;-62
2023/12/16 10:46:37;;;;;;;25.10;15.03;;;;;;;;;;778181;180;901743;-63
2023/12/16 10:49:03;;;;;;;26.20;15.40;;;;;;;;;;773914;180;714406;-69
2023/12/16 10:51:29;;;;;;;23.70;14.60;;;;;;;;;;768247;180;819081;-63
2023/12/16 10:54:00;;;;;;;22.37;14.83;;;;;;;;;;774786;180;907740;-69
2023/12/16 10:56:29;;;;;;;26.43;14.50;;;;;;;;;;767699;181;915708;-70
2023/12/16 10:59:04;;;;;;;28.67;13.87;;;;;;;;;;770142;178;919433;-70
2023/12/16 11:01:30;;;;;;;25.00;14.23;;;;;;;;;;773020;177;919224;-70
2023/12/16 11:03:56;;;;;;;20.30;12.83;;;;;;;;;;773263;178;809723;-62
2023/12/16 11:06:21;;;;;;;20.67;12.33;;;;;;;;;;765531;179;915898;-63
2023/12/16 11:08:47;;;;;;;30.43;15.80;;;;;;;;;;769047;180;855962;-70
2023/12/16 11:11:13;;;;;;;23.90;15.45;;;;;;;;;;773016;180;918832;-63
2023/12/16 11:13:39;;;;;;;22.90;13.47;;;;;;;;;;781975;177;814576;-69
2023/12/16 11:16:05;;;;;;;25.87;15.20;;;;;;;;;;773326;177;919135;-69
2023/12/16 11:18:31;;;;;;;26.30;14.80;;;;;;;;;;774309;179;815058;-69
2023/12/16 11:21:01;;;;;;;24.83;15.50;;;;;;;;;;772809;180;915931;-70
2023/12/16 11:23:23;;;;;;;21.90;14.20;;;;;;;;;;776565;178;758623;-62
2023/12/16 11:25:50;;;;;;;25.27;14.90;;;;;;;;;;774291;177;917343;-70
2023/12/16 11:28:15;;;;;;;27.63;15.63;;;;;;;;;;779234;178;751291;-63
2023/12/16 11:30:42;;;;;;;24.67;14.90;;;;;;;;;;760175;182;918639;-63
2023/12/16 11:33:07;;;;;;;27.90;14.20;;;;;;;;;;767715;180;918245;-62
2023/12/16 11:35:48;;;;;;;28.30;16.60;;;;;;;;;;774897;178;816431;-69
2023/12/16 11:38:31;;;;;;;25.00;15.10;;;;;;;;;;769860;179;813183;-69
2023/12/16 11:40:58;;;;;;;24.50;15.60;;;;;;;;;;772184;181;918902;-69
2023/12/16 11:43:23;;;;;;;32.53;16.87;;;;;;;;;;766026;180;917947;-70
2023/12/16 11:45:48;;;;;;;29.87;16.00;;;;;;;;;;771240;181;918909;-63
2023/12/16 11:48:15;;;;;;;24.97;16.30;;;;;;;;;;772249;177;931937;-63
2023/12/16 11:50:41;;;;;;;26.07;16.30;;;;;;;;;;779930;180;816265;-62
2023/12/16 11:53:06;;;;;;;27.30;15.93;;;;;;;;;;772811;178;920054;-62
2023/12/16 11:55:32;;;;;;;23.97;15.70;;;;;;;;;;770816;181;951438;-63
2023/12/16 11:57:58;;;;;;;24.27;15.40;;;;;;;;;;781666;180;917945;-63
2023/12/16 12:00:23;;;;;;;25.93;16.40;;;;;;;;;;772937;180;921091;-63
2023/12/16 12:02:50;;;;;;;31.13;15.07;;;;;;;;;;770129;180;937919;-62
2023/12/16 12:05:16;;;;;;;25.60;16.60;;;;;;;;;;777099;181;919734;-63
2023/12/16 12:07:42;;;;;;;21.63;14.33;;;;;;;;;;774206;177;637760;-63
2023/12/16 12:10:09;;;;;;;23.23;14.65;;;;;;;;;;771719;180;918118;-64
2023/12/16 12:12:35;;;;;;;25.00;15.07;;;;;;;;;;774250;180;918293;-69
2023/12/16 12:15:01;;;;;;;21.80;14.53;;;;;;;;;;776932;181;817872;-70
2023/12/16 12:17:28;;;;;;;27.23;14.87;;;;;;;;;;772608;181;920603;-69
2023/12/16 12:19:52;;;;;;;30.20;16.60;;;;;;;;;;772074;177;922658;-70
2023/12/16 12:22:19;;;;;;;24.00;14.35;;;;;;;;;;765873;181;919525;-63
2023/12/16 12:24:45;;;;;;;26.30;15.80;;;;;;;;;;769909;178;820487;-63
2023/12/16 12:27:11;;;;;;;30.97;17.30;;;;;;;;;;774819;180;817610;-62
2023/12/16 12:29:43;;;;;;;27.10;16.57;;;;;;;;;;774055;179;872047;-69
2023/12/16 12:32:08;;;;;;;27.77;14.87;;;;;;;;;;777674;177;912341;-63
2023/12/16 12:34:35;;;;;;;27.03;14.83;;;;;;;;;;769283;180;1137399;-70
2023/12/16 12:37:00;;;;;;;20.13;12.83;;;;;;;;;;773525;180;919238;-70
2023/12/16 12:39:26;;;;;;;23.07;14.40;;;;;;;;;;778951;180;920485;-62
2023/12/16 12:41:58;;;;;;;18.30;11.40;;;;;;;;;;770405;180;919031;-62
2023/12/16 12:44:24;;;;;;;20.33;12.83;;;;;;;;;;774621;177;917981;-63
2023/12/16 12:46:49;;;;;;;22.80;11.90;;;;;;;;;;770170;178;912212;-69
2023/12/16 12:49:16;;;;;;;16.70;11.67;;;;;;;;;;781916;180;616812;-70
2023/12/16 12:51:48;;;;;;;20.33;12.20;;;;;;;;;;772573;180;919605;-70
2023/12/16 12:54:14;;;;;;;21.67;12.10;;;;;;;;;;773155;180;922954;-62
2023/12/16 12:56:40;;;;;;;18.70;11.13;;;;;;;;;;773710;181;732597;-70
2023/12/16 12:59:05;;;;;;;23.80;11.47;;;;;;;;;;770160;180;920119;-70
2023/12/16 13:01:31;;;;;;;19.37;10.77;;;;;;;;;;772630;178;818749;-69
2023/12/16 13:03:58;;;;;;;15.10;9.47;;;;;;;;;;763545;181;817252;-63
2023/12/16 13:06:23;;;;;;;14.75;10.30;;;;;;;;;;769437;181;917855;-70
2023/12/16 13:08:50;;;;;;;18.03;9.47;;;;;;;;;;773437;178;844128;-69
2023/12/16 13:11:15;;;;;;;17.48;9.95;;;;;;;;;;770208;179;906507;-62
2023/12/16 13:13:41;;;;;;;18.50;9.73;;;;;;;;;;776572;180;918326;-69
2023/12/16 13:16:07;;;;;;;20.20;10.97;;;;;;;;;;770774;179;908804;-64
2023/12/16 13:18:35;;;;;;;16.77;9.60;;;;;;;;;;771433;179;835875;-68
2023/12/16 13:21:00;;;;;;;17.33;10.67;;;;;;;;;;775947;177;913434;-62
2023/12/16 13:23:25;;;;;;;18.67;9.50;;;;;;;;;;755379;181;920693;-63
2023/12/16 13:25:53;;;;;;;17.10;8.80;;;;;;;;;;766842;181;906871;-63
2023/12/16 13:28:16;;;;;;;11.93;7.57;;;;;;;;;;773667;177;810246;-63
2023/12/16 13:30:42;;;;;;;17.80;9.23;;;;;;;;;;766816;176;919547;-71
2023/12/16 13:33:08;;;;;;;16.40;10.10;;;;;;;;;;773854;180;921864;-62
2023/12/16 13:35:34;;;;;;;16.37;9.60;;;;;;;;;;766723;177;1014982;-63
2023/12/16 13:37:59;;;;;;;14.17;9.00;;;;;;;;;;770026;181;903030;-63
2023/12/16 13:40:25;;;;;;;20.10;10.23;;;;;;;;;;776482;180;872477;-63
2023/12/16 13:42:51;;;;;;;19.50;9.73;;;;;;;;;;771232;180;916625;-70
2023/12/16 13:45:17;;;;;;;20.40;12.00;;;;;;;;;;778091;180;812217;-70
2023/12/16 13:47:44;;;;;;;18.30;9.63;;;;;;;;;;771722;178;918733;-62
2023/12/16 13:50:09;;;;;;;16.17;10.57;;;;;;;;;;772443;177;917169;-62
2023/12/16 13:52:35;;;;;;;19.57;11.13;;;;;;;;;;777395;177;798961;-63
2023/12/16 13:55:00;;;;;;;19.43;12.07;;;;;;;;;;772807;180;941202;-62
2023/12/16 13:57:26;;;;;;;23.07;11.33;;;;;;;;;;771428;180;917243;-62